Time;durP1;ratioP1;P1;durP2;ratioP2;P2;SDS_P1;SDS_P2;PMS_P1;PMS_P2;Temp;Humidity;BMP_temperature;BMP_pressure;BME280_temperature;BME280_humidity;BME280_pressure;Samples;Min_cycle;Max_cycle;Signal;HPM_P1;HPM_P2
2023/01/03 00:01:12;;;;;;;16.90;9.23;;;;;;;11.27;62.77;102487.09;4965571;28;123650;-67
2023/01/03 00:03:39;;;;;;;16.02;9.30;;;;;;;11.27;62.63;102488.88;4967755;28;113140;-67
2023/01/03 00:06:19;;;;;;;14.38;8.70;;;;;;;11.27;62.59;102488.88;4964621;28;112873;-67
2023/01/03 00:08:47;;;;;;;16.60;8.80;;;;;;;11.25;62.53;102485.41;4965454;28;123027;-67
2023/01/03 00:11:18;;;;;;;12.93;8.45;;;;;;;11.22;62.54;102485.44;4966528;28;124585;-67
2023/01/03 00:13:45;;;;;;;15.15;8.60;;;;;;;11.20;62.74;102481.97;4970133;28;114049;-67
2023/01/03 00:16:17;;;;;;;14.52;7.88;;;;;;;11.18;62.61;102474.03;4967113;28;114265;-67
2023/01/03 00:18:45;;;;;;;16.13;8.60;;;;;;;11.16;62.61;102480.28;4966862;28;124117;-67
2023/01/03 00:21:12;;;;;;;15.02;8.43;;;;;;;11.13;62.66;102490.94;4967081;28;123798;-67
2023/01/03 00:23:39;;;;;;;18.65;8.45;;;;;;;11.10;62.52;102491.88;4965780;28;114310;-67
2023/01/03 00:26:14;;;;;;;15.30;8.05;;;;;;;11.07;62.64;102487.50;4965339;28;114066;-67
2023/01/03 00:28:42;;;;;;;13.43;7.72;;;;;;;11.05;62.37;102489.31;4965770;28;124539;-67
2023/01/03 00:31:11;;;;;;;13.40;8.13;;;;;;;11.01;62.46;102495.59;4967043;28;124027;-67
2023/01/03 00:33:39;;;;;;;12.38;7.25;;;;;;;10.98;62.20;102493.03;4967415;28;114220;-67
2023/01/03 00:36:08;;;;;;;12.77;7.10;;;;;;;10.94;62.43;102496.63;4965833;28;114748;-67
2023/01/03 00:38:36;;;;;;;12.70;6.80;;;;;;;10.90;62.26;102494.94;4968952;28;123828;-66
2023/01/03 00:41:10;;;;;;;12.48;6.75;;;;;;;10.85;62.23;102496.78;4960604;28;124611;-67
2023/01/03 00:43:39;;;;;;;11.70;6.63;;;;;;;10.81;62.12;102495.09;4965903;28;117839;-67
2023/01/03 00:46:07;;;;;;;13.02;6.50;;;;;;;10.75;61.93;102495.25;4969593;28;115169;-66
2023/01/03 00:48:34;;;;;;;10.50;6.35;;;;;;;10.69;61.98;102499.75;4967915;28;123644;-67
2023/01/03 00:51:16;;;;;;;16.15;7.22;;;;;;;10.64;61.93;102503.38;4967127;28;123854;-67
2023/01/03 00:53:45;;;;;;;10.70;6.00;;;;;;;10.58;61.95;102499.06;4962533;28;114508;-67
2023/01/03 00:56:14;;;;;;;13.32;6.53;;;;;;;10.54;61.90;102497.38;4964465;28;113798;-67
2023/01/03 00:58:42;;;;;;;10.13;6.43;;;;;;;10.51;61.72;102508.06;4965470;28;124820;-66
2023/01/03 01:01:35;;;;;;;12.90;6.38;;;;;;;10.44;61.88;102512.56;4969619;28;123910;-67
2023/01/03 01:04:16;;;;;;;11.35;6.35;;;;;;;10.38;61.67;102503.84;4961973;28;114360;-67
2023/01/03 01:06:49;;;;;;;12.07;6.60;;;;;;;10.33;61.66;102510.09;4967609;28;114581;-67
2023/01/03 01:09:19;;;;;;;9.98;6.22;;;;;;;10.28;61.70;102511.94;4964307;28;124700;-67
2023/01/03 01:11:48;;;;;;;13.57;6.65;;;;;;;10.23;61.90;102511.13;4967987;28;125316;-67
2023/01/03 01:14:19;;;;;;;11.02;6.57;;;;;;;10.20;61.85;102528.84;4967642;28;114570;-67
2023/01/03 01:16:55;;;;;;;12.98;6.50;;;;;;;10.13;61.77;102528.06;4962943;28;114605;-66
2023/01/03 01:19:29;;;;;;;14.07;7.00;;;;;;;10.09;61.82;102536.97;4962873;28;124202;-67
2023/01/03 01:21:57;;;;;;;12.85;6.70;;;;;;;10.04;61.57;102533.50;4964258;28;123733;-67
2023/01/03 01:24:24;;;;;;;10.23;6.45;;;;;;;10.00;61.76;102532.69;4970047;28;113974;-66
2023/01/03 01:26:51;;;;;;;19.75;6.93;;;;;;;9.95;61.53;102539.81;4967081;28;114611;-67
2023/01/03 01:29:18;;;;;;;13.45;6.57;;;;;;;9.88;61.70;102549.63;4965416;28;126039;-67
2023/01/03 01:31:46;;;;;;;12.48;6.53;;;;;;;9.84;61.56;102553.22;4967458;28;123932;-67
2023/01/03 01:34:14;;;;;;;14.82;6.65;;;;;;;9.80;61.90;102556.81;4967347;28;115361;-67
2023/01/03 01:36:43;;;;;;;13.48;7.28;;;;;;;9.77;61.95;102564.78;4969181;28;115106;-67
2023/01/03 01:39:21;;;;;;;13.80;6.47;;;;;;;9.73;61.86;102565.72;4967196;28;123806;-67
2023/01/03 01:45:00;;;;;;;10.68;6.20;;;;;;;9.68;61.81;102567.53;4963187;28;113999;-67
2023/01/03 01:47:32;;;;;;;13.45;6.78;;;;;;;9.64;62.01;102560.53;4964383;28;114026;-67
2023/01/03 01:50:33;;;;;;;9.68;5.97;;;;;;;9.62;62.05;102578.22;4963291;28;123105;-66
2023/01/03 01:53:07;;;;;;;14.13;6.47;;;;;;;9.60;61.97;102570.28;4963974;28;123804;-67
2023/01/03 01:55:40;;;;;;;11.35;6.00;;;;;;;9.59;61.78;102572.94;4968474;28;114159;-67
2023/01/03 01:58:08;;;;;;;10.35;5.80;;;;;;;9.57;61.76;102580.94;4962402;28;114155;-67
2023/01/03 02:00:36;;;;;;;10.27;6.30;;;;;;;9.55;62.13;102573.00;4963989;28;124710;-66
2023/01/03 02:03:04;;;;;;;12.27;5.88;;;;;;;9.53;61.87;102580.09;4965332;28;123080;-67
2023/01/03 02:05:33;;;;;;;10.77;5.85;;;;;;;9.51;61.80;102576.59;4967617;28;114026;-66
2023/01/03 02:08:01;;;;;;;10.10;6.30;;;;;;;9.50;61.75;102582.75;4967932;28;114337;-66
2023/01/03 02:10:43;;;;;;;10.15;6.10;;;;;;;9.46;61.69;102583.69;4965696;28;124708;-67
2023/01/03 02:13:23;;;;;;;11.15;6.53;;;;;;;9.43;61.74;102580.22;4963357;28;124550;-67
2023/01/03 02:16:11;;;;;;;10.07;5.93;;;;;;;9.38;61.64;102585.56;4963995;28;113969;-66
2023/01/03 02:19:14;;;;;;;10.68;5.78;;;;;;;9.34;61.92;102583.84;4961597;28;114006;-67
2023/01/03 02:21:55;;;;;;;10.40;6.35;;;;;;;9.28;61.53;102583.91;4961261;28;124595;-67
2023/01/03 02:25:12;;;;;;;13.88;6.25;;;;;;;9.23;61.70;102585.72;4961707;28;124091;-66
2023/01/03 02:27:55;;;;;;;14.02;6.80;;;;;;;9.14;61.81;102587.59;4966499;28;115503;-67
2023/01/03 02:30:34;;;;;;;16.38;6.85;;;;;;;9.10;62.06;102580.59;4964543;28;115021;-67
2023/01/03 02:33:46;;;;;;;12.70;6.45;;;;;;;9.05;61.77;102576.25;4955366;28;123823;-67
2023/01/03 02:36:48;;;;;;;12.88;6.78;;;;;;;9.00;61.91;102568.34;4958906;28;123260;-66
2023/01/03 02:39:29;;;;;;;11.95;6.93;;;;;;;8.97;62.01;102568.41;4962529;28;114300;-66
2023/01/03 02:45:26;;;;;;;13.18;6.90;;;;;;;8.89;62.02;102570.22;4965046;28;122860;-67
2023/01/03 02:48:02;;;;;;;12.27;7.15;;;;;;;8.87;62.11;102577.31;4968022;28;123786;-66
2023/01/03 02:50:38;;;;;;;13.35;6.60;;;;;;;8.85;62.12;102573.81;4961674;28;114291;-67
2023/01/03 02:53:07;;;;;;;;;;;;;;;8.83;61.84;102575.59;4962516;28;114899;-67
2023/01/03 02:55:37;;;;;;;12.48;7.13;;;;;;;8.80;61.68;102575.59;4961964;28;124866;-66
2023/01/03 02:58:12;;;;;;;14.15;7.43;;;;;;;8.76;62.06;102573.00;4958002;28;124262;-66
2023/01/03 03:00:44;;;;;;;11.82;7.43;;;;;;;8.71;61.71;102566.88;4962856;28;113672;-67
2023/01/03 03:03:15;;;;;;;15.57;7.50;;;;;;;8.69;61.92;102558.09;4963557;28;113940;-67
2023/01/03 03:06:24;;;;;;;15.82;8.05;;;;;;;8.63;61.91;102563.47;4965120;28;123762;-67
2023/01/03 03:08:51;;;;;;;11.93;7.03;;;;;;;8.60;62.06;102563.47;4965895;28;123791;-66
2023/01/03 03:14:08;;;;;;;;;;;;;;;8.51;61.80;102575.00;4967230;28;114394;-67
2023/01/03 03:16:48;;;;;;;12.65;7.00;;;;;;;8.48;62.05;102568.88;4962175;28;124825;-67
2023/01/03 03:25:39;;;;;;;13.73;7.32;;;;;;;8.33;62.45;102560.16;4964297;28;114987;-67
2023/01/03 03:30:58;;;;;;;16.63;7.78;;;;;;;8.29;62.36;102558.44;4958165;28;123965;-67
2023/01/03 03:33:29;;;;;;;13.30;7.82;;;;;;;8.30;62.52;102564.56;4958791;28;114136;-67
2023/01/03 03:36:06;;;;;;;14.07;7.53;;;;;;;8.29;62.77;102574.28;4964270;28;112808;-67
2023/01/03 03:38:40;;;;;;;14.02;8.13;;;;;;;8.27;62.39;102570.75;4962799;28;123104;-66
2023/01/03 03:47:33;;;;;;;14.85;8.00;;;;;;;8.19;62.31;102583.13;4949725;28;114178;-67
2023/01/03 03:50:09;;;;;;;13.05;7.65;;;;;;;8.18;62.75;102578.75;4957961;28;123616;-67
2023/01/03 03:52:41;;;;;;;12.98;7.25;;;;;;;8.17;62.67;102579.63;4953327;28;124112;-66
2023/01/03 03:55:15;;;;;;;14.60;8.13;;;;;;;8.16;62.85;102578.75;4950636;28;113737;-67
2023/01/03 03:57:58;;;;;;;11.15;7.45;;;;;;;8.16;62.97;102584.03;4949421;28;114090;-67
2023/01/03 04:00:31;;;;;;;15.77;7.63;;;;;;;8.16;62.83;102583.16;4952816;28;124065;-67
2023/01/03 04:03:00;;;;;;;15.52;7.55;;;;;;;8.15;62.74;102586.69;4949299;28;123969;-67
2023/01/03 04:05:33;;;;;;;16.85;7.85;;;;;;;8.15;62.95;102581.41;4948025;28;114242;-67
2023/01/03 04:08:00;;;;;;;14.70;7.25;;;;;;;8.15;62.73;102578.75;4950315;28;114541;-67
2023/01/03 04:10:27;;;;;;;15.90;6.47;;;;;;;8.13;62.60;102576.13;4947766;28;123605;-67
2023/01/03 04:13:03;;;;;;;14.25;7.28;;;;;;;8.13;62.63;102577.91;4948763;28;123600;-67
2023/01/03 04:15:30;;;;;;;16.15;7.78;;;;;;;8.12;62.95;102587.59;4948277;28;114429;-66
2023/01/03 04:18:00;;;;;;;13.45;6.85;;;;;;;8.14;62.72;102590.22;4947860;28;114881;-66
2023/01/03 04:20:28;;;;;;;12.80;7.13;;;;;;;8.15;63.01;102597.22;4947096;28;124713;-67
2023/01/03 04:22:55;;;;;;;12.90;6.63;;;;;;;8.15;62.86;102597.22;4946305;28;123897;-66
2023/01/03 04:25:23;;;;;;;10.48;6.53;;;;;;;8.15;62.94;102591.97;4947573;28;113951;-67
2023/01/03 04:27:50;;;;;;;14.82;6.47;;;;;;;8.14;62.72;102590.22;4950180;28;114180;-66
2023/01/03 04:30:17;;;;;;;16.75;7.03;;;;;;;8.16;62.96;102593.72;4946342;28;124450;-66
2023/01/03 04:32:44;;;;;;;11.93;6.07;;;;;;;8.17;62.80;102595.47;4948514;28;123793;-67
2023/01/03 04:35:11;;;;;;;13.45;6.55;;;;;;;8.16;62.59;102593.72;4953694;28;113822;-66
2023/01/03 04:37:38;;;;;;;11.75;6.75;;;;;;;8.15;62.79;102597.22;4965738;28;114275;-66
2023/01/03 04:40:05;;;;;;;14.18;6.68;;;;;;;8.14;62.59;102599.00;4960410;28;123371;-66
2023/01/03 04:45:18;;;;;;;13.93;6.72;;;;;;;8.11;62.62;102606.06;4965244;28;114264;-66
2023/01/03 04:47:45;;;;;;;14.38;6.65;;;;;;;8.10;62.78;102607.84;4968356;28;113661;-66
2023/01/03 04:50:12;;;;;;;14.57;6.72;;;;;;;8.10;62.96;102604.28;4964359;28;123367;-66
2023/01/03 04:52:39;;;;;;;11.85;6.28;;;;;;;8.10;62.79;102612.22;4966797;28;123763;-67
2023/01/03 04:55:07;;;;;;;13.63;7.40;;;;;;;8.12;63.05;102607.84;4968627;28;114328;-66
2023/01/03 04:57:35;;;;;;;13.68;6.80;;;;;;;8.13;63.05;102609.56;4964780;28;114224;-66
2023/01/03 05:00:04;;;;;;;11.90;5.93;;;;;;;8.14;62.76;102596.38;4965065;28;123269;-66
2023/01/03 05:02:32;;;;;;;12.55;6.68;;;;;;;8.15;62.90;102597.22;4963758;28;123025;-66
2023/01/03 05:04:59;;;;;;;13.98;6.60;;;;;;;8.15;62.57;102595.47;4964155;28;115920;-66
2023/01/03 05:07:27;;;;;;;13.60;6.75;;;;;;;8.16;62.91;102593.72;4961172;28;113817;-67
2023/01/03 05:09:54;;;;;;;13.63;6.30;;;;;;;8.15;63.00;102587.53;4966793;28;123865;-67
2023/01/03 05:12:21;;;;;;;11.68;6.57;;;;;;;8.17;62.68;102595.47;4964544;28;124762;-67
2023/01/03 05:14:48;;;;;;;12.48;7.03;;;;;;;8.18;63.11;102591.94;4965307;28;114353;-67
2023/01/03 05:17:19;;;;;;;16.88;6.90;;;;;;;8.20;63.03;102590.16;4964075;28;114468;-67
2023/01/03 05:28:04;;;;;;;12.50;6.53;;;;;;;8.18;62.91;102586.66;4966088;28;113983;-67
2023/01/03 05:30:31;;;;;;;14.60;6.93;;;;;;;8.19;62.96;102588.41;4965883;28;125148;-67
2023/01/03 05:32:58;;;;;;;14.45;6.47;;;;;;;8.21;63.18;102597.19;4964188;28;122760;-67
2023/01/03 05:35:25;;;;;;;14.45;6.13;;;;;;;8.22;62.72;102593.66;4962485;28;114186;-66
2023/01/03 05:37:53;;;;;;;12.95;6.13;;;;;;;8.24;63.09;102586.63;4967038;28;114212;-67
2023/01/03 05:40:20;;;;;;;11.35;5.82;;;;;;;8.26;62.94;102584.84;4968140;28;124323;-66
2023/01/03 05:42:47;;;;;;;11.00;5.82;;;;;;;8.27;63.00;102583.97;4966484;28;124517;-66
2023/01/03 05:45:15;;;;;;;11.65;6.60;;;;;;;8.28;63.24;102577.78;4963054;28;113144;-67
2023/01/03 05:47:42;;;;;;;11.10;5.80;;;;;;;8.31;63.01;102572.50;4962109;28;113761;-67
2023/01/03 05:50:09;;;;;;;12.18;6.63;;;;;;;8.33;62.87;102576.00;4966516;28;124070;-66
2023/01/03 05:52:36;;;;;;;12.27;6.35;;;;;;;8.35;63.22;102573.34;4964051;28;123678;-66
2023/01/03 05:55:03;;;;;;;12.32;6.30;;;;;;;8.36;62.97;102573.34;4965287;28;115720;-67
2023/01/03 05:57:30;;;;;;;14.98;6.47;;;;;;;8.38;63.03;102576.84;4968531;28;114972;-67
2023/01/03 06:00:03;;;;;;;10.35;6.10;;;;;;;8.38;63.01;102579.47;4964953;28;124444;-67
2023/01/03 06:02:31;;;;;;;12.25;6.30;;;;;;;8.38;63.09;102574.19;4962138;28;124542;-67
2023/01/03 06:04:58;;;;;;;12.65;6.20;;;;;;;8.39;63.01;102578.56;4967533;28;114860;-66
2023/01/03 06:07:28;;;;;;;14.38;6.70;;;;;;;8.38;62.71;102579.47;4963283;28;114039;-66
2023/01/03 06:09:55;;;;;;;14.50;6.30;;;;;;;8.39;62.90;102581.22;4967137;28;124736;-66
2023/01/03 06:12:25;;;;;;;13.73;6.50;;;;;;;8.38;63.01;102574.19;4961316;28;123737;-67
2023/01/03 06:14:52;;;;;;;12.05;6.43;;;;;;;8.36;62.66;102575.97;4962894;28;114640;-66
2023/01/03 06:20:06;;;;;;;14.50;6.18;;;;;;;8.33;62.92;102570.72;4965103;28;123710;-67
2023/01/03 06:22:33;;;;;;;14.73;7.22;;;;;;;8.32;62.68;102558.38;4967641;28;123958;-67
2023/01/03 06:25:01;;;;;;;11.65;6.28;;;;;;;8.30;62.62;102549.59;4962263;28;114421;-67
2023/01/03 06:27:28;;;;;;;12.63;6.72;;;;;;;8.28;62.64;102561.06;4965741;28;113562;-67
2023/01/03 06:29:55;;;;;;;12.05;6.20;;;;;;;8.25;62.82;102562.00;4960498;28;124468;-67
2023/01/03 06:32:22;;;;;;;15.13;6.90;;;;;;;8.23;62.70;102569.03;4959587;28;123042;-67
2023/01/03 06:34:50;;;;;;;14.32;6.97;;;;;;;8.20;62.32;102569.06;4965249;28;114069;-67
2023/01/03 06:37:17;;;;;;;12.75;6.57;;;;;;;8.18;62.53;102570.84;4961667;28;114891;-67
2023/01/03 06:39:44;;;;;;;14.02;6.63;;;;;;;8.17;62.73;102563.78;4962502;28;124482;-67
2023/01/03 06:53:39;;;;;;;12.05;6.00;;;;;;;8.03;62.73;102555.13;4962116;28;123843;-67
2023/01/03 06:56:07;;;;;;;10.25;6.10;;;;;;;8.03;62.88;102549.84;4978516;28;113447;-67
2023/01/03 06:58:35;;;;;;;12.73;6.30;;;;;;;8.05;63.11;102563.88;4967255;28;113320;-67
2023/01/03 07:01:03;;;;;;;14.43;6.85;;;;;;;8.05;62.92;102558.63;4959263;28;123577;-67
2023/01/03 07:03:32;;;;;;;15.20;6.70;;;;;;;8.05;62.96;102551.56;4965689;28;124304;-67
2023/01/03 07:05:59;;;;;;;12.90;5.85;;;;;;;8.08;62.85;102563.84;4961102;28;114583;-67
2023/01/03 07:08:26;;;;;;;12.40;6.22;;;;;;;8.09;63.37;102560.34;4965621;28;112973;-67
2023/01/03 07:10:53;;;;;;;11.15;6.28;;;;;;;8.12;63.45;102557.69;4965796;28;123986;-67
2023/01/03 07:16:11;;;;;;;;;;;;;;;8.16;63.04;102564.69;4964118;28;114547;-67
2023/01/03 07:18:38;;;;;;;11.00;5.55;;;;;;;8.19;63.24;102562.00;4963457;28;113985;-67
2023/01/03 07:21:06;;;;;;;10.60;4.72;;;;;;;8.19;63.24;102562.00;4962729;28;124112;-67
2023/01/03 07:23:33;;;;;;;10.20;4.28;;;;;;;8.21;63.00;102554.09;4963194;28;124367;-67
2023/01/03 07:26:00;;;;;;;9.43;4.72;;;;;;;8.22;62.94;102567.28;4962978;28;113036;-67
2023/01/03 07:28:27;;;;;;;9.63;4.80;;;;;;;8.23;63.29;102558.47;4964996;28;114302;-67
2023/01/03 07:31:00;;;;;;;10.90;5.25;;;;;;;8.25;63.04;102562.00;4966986;28;124295;-67
2023/01/03 07:33:27;;;;;;;12.20;4.70;;;;;;;8.27;63.27;102562.84;4959164;28;123707;-68
2023/01/03 07:36:02;;;;;;;14.20;5.38;;;;;;;8.29;63.16;102547.88;4961779;28;116014;-67
2023/01/03 07:38:39;;;;;;;10.00;4.57;;;;;;;8.31;63.22;102540.81;4959936;28;113972;-67
2023/01/03 07:41:07;;;;;;;9.00;5.30;;;;;;;8.32;63.31;102542.53;4960590;28;124555;-67
2023/01/03 07:43:40;;;;;;;13.57;5.00;;;;;;;8.35;63.41;102547.81;4959477;28;123739;-67
2023/01/03 07:46:14;;;;;;;13.30;4.78;;;;;;;8.38;63.33;102547.78;4958966;28;114625;-67
2023/01/03 07:48:44;;;;;;;13.97;5.53;;;;;;;8.42;63.36;102542.50;4963677;28;114034;-67
2023/01/03 07:51:13;;;;;;;11.18;5.25;;;;;;;8.47;63.24;102567.13;4963449;28;123850;-67
2023/01/03 07:53:41;;;;;;;9.85;4.72;;;;;;;8.49;63.05;102581.19;4962813;28;122735;-67
2023/01/03 07:56:14;;;;;;;8.90;5.25;;;;;;;8.52;63.44;102581.16;4955953;28;113995;-67
2023/01/03 07:58:43;;;;;;;10.07;5.03;;;;;;;8.56;63.41;102582.88;4961364;28;113341;-67
2023/01/03 08:01:24;;;;;;;7.68;4.80;;;;;;;8.60;63.23;102579.31;4965676;28;124998;-67
2023/01/03 08:04:13;;;;;;;8.38;4.50;;;;;;;8.63;63.23;102579.31;4961738;28;123749;-68
2023/01/03 08:06:40;;;;;;;9.48;4.53;;;;;;;8.66;63.55;102584.53;4964738;28;115130;-68
2023/01/03 08:14:38;;;;;;;7.97;4.38;;;;;;;8.76;63.47;102580.94;4964699;28;124238;-68
2023/01/03 08:17:05;;;;;;;9.63;4.70;;;;;;;8.81;63.39;102572.09;4967384;28;114454;-69
2023/01/03 08:19:32;;;;;;;8.88;4.30;;;;;;;8.86;63.54;102575.56;4966028;28;114295;-69
2023/01/03 08:21:59;;;;;;;9.75;4.80;;;;;;;8.92;63.59;102570.22;4966587;28;123743;-69
2023/01/03 08:24:26;;;;;;;11.73;4.97;;;;;;;8.98;63.57;102580.72;4965045;28;123746;-69
2023/01/03 08:26:53;;;;;;;10.07;4.28;;;;;;;9.03;63.47;102589.47;4960520;28;116066;-69
2023/01/03 08:29:20;;;;;;;8.90;4.53;;;;;;;9.09;63.71;102594.69;4931953;28;115550;-69
2023/01/03 08:31:55;;;;;;;9.27;4.53;;;;;;;9.13;63.80;102596.41;4950093;28;123726;-69
2023/01/03 08:34:26;;;;;;;9.63;4.50;;;;;;;9.19;63.68;102599.88;4949294;28;124006;-69
2023/01/03 08:37:02;;;;;;;9.43;4.30;;;;;;;9.26;63.53;102596.28;4966942;28;113134;-69
2023/01/03 08:39:38;;;;;;;8.20;4.85;;;;;;;9.30;63.69;102598.00;4950493;28;113829;-69
2023/01/03 08:42:07;;;;;;;9.40;4.38;;;;;;;9.34;63.62;102599.69;4951483;28;125397;-69
2023/01/03 08:44:35;;;;;;;8.60;4.40;;;;;;;9.40;63.59;102604.03;4941736;28;124761;-69
2023/01/03 08:47:05;;;;;;;11.27;4.70;;;;;;;9.44;63.75;102604.00;4948532;28;114031;-69
2023/01/03 08:49:35;;;;;;;9.95;4.55;;;;;;;9.50;63.76;102606.56;4951153;28;114194;-69
2023/01/03 08:52:02;;;;;;;11.35;5.00;;;;;;;9.55;64.01;102615.34;4952351;28;123832;-68
2023/01/03 08:54:29;;;;;;;10.32;5.07;;;;;;;9.61;63.83;102624.09;4961679;28;123745;-69
2023/01/03 08:56:56;;;;;;;11.05;5.10;;;;;;;9.66;63.91;102624.88;4964621;28;114327;-69
2023/01/03 08:59:24;;;;;;;8.45;4.82;;;;;;;9.71;63.94;102620.44;4951789;28;114016;-69
2023/01/03 09:01:51;;;;;;;9.30;4.40;;;;;;;9.76;63.89;102618.59;4950454;28;124144;-69
2023/01/03 09:04:18;;;;;;;11.75;4.95;;;;;;;9.81;63.86;102622.03;4951565;28;123854;-68
2023/01/03 09:06:45;;;;;;;10.13;5.15;;;;;;;9.81;63.56;102619.41;4950764;28;114176;-69
2023/01/03 09:09:12;;;;;;;9.68;4.55;;;;;;;9.85;63.80;102618.47;4951473;28;113667;-69
2023/01/03 09:11:39;;;;;;;8.88;4.65;;;;;;;9.89;63.91;102614.91;4951173;28;123831;-69
2023/01/03 09:14:06;;;;;;;10.73;4.90;;;;;;;9.93;64.05;102618.38;4938622;28;122872;-69
2023/01/03 09:16:33;;;;;;;10.73;4.80;;;;;;;9.98;63.96;102613.00;4947550;28;115427;-69
2023/01/03 09:19:01;;;;;;;8.23;4.32;;;;;;;10.02;64.15;102623.56;4951477;28;114431;-69
2023/01/03 09:21:28;;;;;;;12.10;4.40;;;;;;;10.07;64.14;102628.75;4949645;28;123659;-69
2023/01/03 09:23:57;;;;;;;10.27;4.90;;;;;;;10.12;64.04;102637.53;4950692;28;123719;-69
2023/01/03 09:26:24;;;;;;;9.50;4.55;;;;;;;10.16;63.88;102639.22;4949931;28;114118;-69
2023/01/03 09:28:51;;;;;;;9.25;4.85;;;;;;;10.20;64.03;102635.63;4950348;28;113816;-69
2023/01/03 09:31:18;;;;;;;10.02;4.80;;;;;;;10.24;63.79;102637.31;4950953;28;124517;-69
2023/01/03 09:33:45;;;;;;;10.05;4.60;;;;;;;10.27;64.01;102637.28;4951382;28;124214;-69
2023/01/03 09:36:13;;;;;;;12.75;4.43;;;;;;;10.31;63.95;102632.88;4950940;28;114285;-69
2023/01/03 09:38:40;;;;;;;8.38;4.57;;;;;;;10.35;64.01;102633.69;4951034;28;115452;-69
2023/01/03 09:41:15;;;;;;;10.73;4.32;;;;;;;10.38;64.01;102638.94;4950468;28;124542;-69
2023/01/03 09:43:44;;;;;;;;;;;;;;;10.41;63.71;102644.19;4948382;28;123840;-69
2023/01/03 09:46:18;;;;;;;8.85;4.43;;;;;;;10.43;63.84;102637.97;4951070;28;114433;-69
2023/01/03 09:48:47;;;;;;;10.07;4.57;;;;;;;10.45;63.92;102635.28;4964486;28;113867;-68
2023/01/03 10:06:12;;;;;;;12.40;5.10;;;;;;;10.58;63.83;102631.53;4967511;28;124732;-68
2023/01/03 10:08:48;;;;;;;11.27;5.20;;;;;;;10.61;63.90;102628.84;4955948;28;115229;-69
2023/01/03 10:11:34;;;;;;;10.30;4.97;;;;;;;10.63;64.07;102624.41;4950023;28;115128;-69
2023/01/03 10:14:26;;;;;;;10.55;4.85;;;;;;;10.67;63.98;102615.50;4950335;28;123789;-69
2023/01/03 10:17:17;;;;;;;10.10;4.30;;;;;;;10.69;63.79;102618.13;4935711;28;123876;-69
2023/01/03 10:19:50;;;;;;;9.40;4.90;;;;;;;10.73;63.91;102618.94;4949390;28;114631;-68
2023/01/03 10:22:20;;;;;;;11.15;5.00;;;;;;;10.78;63.89;102622.41;4951177;28;115344;-69
2023/01/03 10:24:59;;;;;;;10.38;5.47;;;;;;;10.82;64.03;102618.78;4949872;28;123800;-69
2023/01/03 10:27:31;;;;;;;9.77;5.22;;;;;;;10.86;64.01;102618.69;4949371;28;123756;-69
2023/01/03 10:30:00;;;;;;;9.20;4.72;;;;;;;10.91;64.09;102613.34;4947911;28;113971;-69
2023/01/03 10:32:33;;;;;;;11.02;5.18;;;;;;;10.94;63.87;102613.25;4948898;28;113892;-69
2023/01/03 10:35:18;;;;;;;12.50;5.35;;;;;;;10.98;63.93;102617.63;4946414;28;124327;-69
2023/01/03 10:37:46;;;;;;;8.20;4.90;;;;;;;11.02;64.02;102611.38;4949621;28;123533;-68
2023/01/03 10:40:14;;;;;;;8.60;4.85;;;;;;;11.07;63.89;102620.09;4948884;28;114392;-69
2023/01/03 10:42:42;;;;;;;9.32;4.43;;;;;;;11.11;63.89;102615.59;4943726;28;113978;-69
2023/01/03 10:45:20;;;;;;;9.95;5.00;;;;;;;11.14;63.71;102609.38;4950207;28;124764;-69
2023/01/03 10:47:58;;;;;;;7.50;4.63;;;;;;;11.19;63.82;102602.19;4975255;28;123775;-68
2023/01/03 10:50:27;;;;;;;8.38;4.40;;;;;;;11.21;63.78;102608.38;4957039;28;114210;-69
2023/01/03 10:53:06;;;;;;;8.93;4.57;;;;;;;11.25;63.62;102604.75;4953716;28;114889;-69
2023/01/03 10:55:42;;;;;;;7.95;4.40;;;;;;;11.26;63.84;102606.47;4949417;28;124095;-69
2023/01/03 10:58:26;;;;;;;7.43;4.15;;;;;;;11.27;63.60;102594.97;4940172;28;123938;-70
2023/01/03 11:01:16;;;;;;;8.13;4.10;;;;;;;11.28;63.79;102589.66;4948867;28;114533;-69
2023/01/03 11:03:44;;;;;;;10.15;4.05;;;;;;;11.32;63.59;102593.13;4962177;28;115895;-69
2023/01/03 11:06:17;;;;;;;8.55;4.20;;;;;;;11.35;63.80;102593.03;4959539;28;125464;-69
2023/01/03 11:08:57;;;;;;;8.75;4.00;;;;;;;11.38;63.61;102598.28;4980776;28;124119;-69
2023/01/03 11:11:40;;;;;;;9.63;4.32;;;;;;;11.42;63.66;102594.66;4961404;28;114489;-69
2023/01/03 11:14:20;;;;;;;8.32;3.83;;;;;;;11.47;63.66;102598.09;4965181;28;114369;-69
2023/01/03 11:16:53;;;;;;;6.57;3.58;;;;;;;11.53;63.71;102596.22;4955474;28;98329;-69
2023/01/03 11:19:27;;;;;;;7.45;4.03;;;;;;;11.56;63.58;102586.41;4960816;28;124394;-69
2023/01/03 11:22:09;;;;;;;7.47;3.42;;;;;;;11.60;63.55;102592.53;4955075;28;114375;-69
2023/01/03 11:25:16;;;;;;;10.02;4.13;;;;;;;11.65;63.53;102590.66;4954508;28;113865;-69
2023/01/03 11:28:05;;;;;;;;;;;;;;;11.68;63.60;102587.94;4948665;28;124927;-69
2023/01/03 11:31:07;;;;;;;8.35;3.67;;;;;;;11.74;63.59;102594.91;4930796;28;123612;-69
2023/01/03 11:34:04;;;;;;;8.55;3.47;;;;;;;11.76;63.57;102593.94;4958789;28;114630;-69
2023/01/03 11:37:22;;;;;;;7.78;3.70;;;;;;;11.80;63.69;102579.69;4962714;28;114124;-67
2023/01/03 11:39:52;;;;;;;7.13;3.10;;;;;;;11.86;63.46;102573.38;4980908;28;123890;-67
2023/01/03 11:42:44;;;;;;;7.90;3.38;;;;;;;11.90;63.43;102574.22;4958708;28;124588;-67
2023/01/03 11:45:46;;;;;;;7.00;3.22;;;;;;;11.94;63.61;102570.59;4946390;28;114925;-68
2023/01/03 11:48:33;;;;;;;6.53;3.22;;;;;;;12.00;63.48;102570.47;4956544;28;115556;-67
2023/01/03 11:51:05;;;;;;;6.35;3.33;;;;;;;12.05;63.62;102568.53;4941694;28;125515;-67
2023/01/03 11:53:44;;;;;;;5.35;3.17;;;;;;;12.10;63.48;102569.31;4963522;28;123668;-67
2023/01/03 11:56:28;;;;;;;6.85;3.53;;;;;;;12.15;63.43;102558.56;4962109;28;114811;-67
2023/01/03 11:59:05;;;;;;;11.18;3.90;;;;;;;12.19;63.27;102561.13;4957067;28;114772;-68
2023/01/03 12:02:00;;;;;;;7.63;3.70;;;;;;;12.22;63.29;102571.69;4960505;28;125405;-68
2023/01/03 12:05:06;;;;;;;6.95;3.15;;;;;;;12.27;63.25;102555.63;4959475;28;125469;-67
2023/01/03 12:07:56;;;;;;;5.85;3.42;;;;;;;12.27;63.09;102556.50;4960837;28;114222;-68
2023/01/03 12:10:53;;;;;;;6.07;3.38;;;;;;;12.29;63.18;102539.66;4954776;28;113057;-68
2023/01/03 12:13:23;;;;;;;9.55;3.60;;;;;;;12.30;63.05;102547.59;4959289;28;124341;-68
2023/01/03 12:16:11;;;;;;;7.57;3.30;;;;;;;12.29;63.03;102534.34;4962873;28;124721;-67
2023/01/03 12:18:51;;;;;;;5.78;2.90;;;;;;;12.32;62.92;102528.94;4946944;28;114458;-68
2023/01/03 12:21:35;;;;;;;7.80;3.28;;;;;;;12.35;63.24;102528.88;4947427;28;114086;-67
2023/01/03 12:24:27;;;;;;;8.48;3.78;;;;;;;12.38;62.88;102528.81;4954790;28;124005;-68
2023/01/03 12:27:01;;;;;;;6.88;3.50;;;;;;;12.40;62.75;102526.97;4953178;28;123983;-68
2023/01/03 12:29:42;;;;;;;8.30;3.70;;;;;;;12.41;62.96;102523.38;4955451;28;114228;-68
2023/01/03 12:32:15;;;;;;;6.32;3.30;;;;;;;12.42;62.73;102525.16;4949075;28;114679;-68
2023/01/03 12:35:00;;;;;;;6.07;3.40;;;;;;;12.43;62.70;102521.56;4964890;28;124073;-68
2023/01/03 12:37:35;;;;;;;8.95;3.53;;;;;;;12.44;62.55;102528.63;4944913;28;123923;-67
2023/01/03 12:40:11;;;;;;;6.53;3.43;;;;;;;12.45;62.62;102520.63;4942999;28;113354;-67
2023/01/03 12:42:45;;;;;;;10.80;3.45;;;;;;;12.47;62.71;102525.91;4946638;28;114313;-68
2023/01/03 12:45:24;;;;;;;7.43;3.40;;;;;;;12.48;62.60;102524.97;4929481;28;123915;-67
2023/01/03 12:48:19;;;;;;;7.95;3.97;;;;;;;12.50;62.48;102525.81;4947839;28;124025;-67
2023/01/03 12:50:48;;;;;;;9.55;3.78;;;;;;;12.51;62.50;102535.53;4958782;28;115687;-67
2023/01/03 12:53:34;;;;;;;7.60;4.13;;;;;;;12.50;62.42;102523.16;4945453;28;113697;-68
2023/01/03 12:56:18;;;;;;;9.77;3.97;;;;;;;12.50;62.22;102517.84;4934064;28;124560;-68
2023/01/03 12:59:08;;;;;;;9.02;4.40;;;;;;;12.52;62.02;102516.00;4946094;28;124567;-68